createdAt,value
2023-08-18T00:00:30.090Z,20.90
2023-08-18T00:03:02.796Z,20.80
2023-08-18T00:05:34.783Z,20.90
2023-08-18T00:08:07.110Z,20.70
2023-08-18T00:10:39.137Z,20.70
2023-08-18T00:13:11.472Z,20.60
2023-08-18T00:15:43.479Z,20.30
2023-08-18T00:18:16.271Z,20.50
2023-08-18T00:20:48.592Z,20.40
2023-08-18T00:23:21.092Z,20.30
2023-08-18T00:25:53.035Z,20.20
2023-08-18T00:28:25.410Z,20.20
2023-08-18T00:30:57.389Z,20.20
2023-08-18T00:33:29.777Z,20.40
2023-08-18T00:36:01.766Z,20.50
2023-08-18T00:38:35.338Z,20.60
2023-08-18T00:41:07.608Z,20.60
2023-08-18T00:43:41.464Z,20.70
2023-08-18T00:46:13.687Z,20.70
2023-08-18T00:48:46.724Z,20.70
2023-08-18T00:51:22.652Z,20.50
2023-08-18T00:53:55.571Z,20.40
2023-08-18T00:56:27.656Z,20.30
2023-08-18T00:59:01.302Z,20.40
2023-08-18T01:01:34.943Z,20.40
2023-08-18T01:04:07.742Z,20.40
2023-08-18T01:06:40.935Z,20.30
2023-08-18T01:09:14.931Z,20.20
2023-08-18T01:12:21.564Z,20.20
2023-08-18T01:15:16.987Z,20.30
2023-08-18T01:17:52.206Z,20.40
2023-08-18T01:20:25.186Z,20.40
2023-08-18T01:22:58.390Z,20.50
2023-08-18T01:25:31.616Z,20.50
2023-08-18T01:28:04.249Z,20.50
2023-08-18T01:30:48.459Z,20.40
2023-08-18T01:33:40.026Z,20.40
2023-08-18T01:36:23.176Z,20.60
2023-08-18T01:38:56.981Z,20.60
2023-08-18T01:41:31.481Z,20.70
2023-08-18T01:44:06.658Z,20.70
2023-08-18T01:46:39.035Z,20.70
2023-08-18T01:49:11.096Z,20.70
2023-08-18T01:54:15.829Z,20.60
2023-08-18T01:56:48.475Z,20.60
2023-08-18T01:59:20.961Z,20.70
2023-08-18T02:01:53.468Z,20.60
2023-08-18T02:04:25.493Z,20.60
2023-08-18T02:06:57.839Z,20.40
2023-08-18T02:09:29.795Z,20.30
2023-08-18T02:12:02.179Z,20.10
2023-08-18T02:14:35.028Z,20.00
2023-08-18T02:17:07.493Z,19.90
2023-08-18T02:19:40.047Z,19.80
2023-08-18T02:22:12.466Z,19.70
2023-08-18T02:24:44.377Z,19.60
2023-08-18T02:27:17.934Z,19.40
2023-08-18T02:29:49.864Z,19.40
2023-08-18T02:32:22.177Z,19.50
2023-08-18T02:34:54.193Z,19.50
2023-08-18T02:37:27.139Z,19.50
2023-08-18T02:42:37.026Z,19.70
2023-08-18T02:45:09.698Z,19.70
2023-08-18T02:47:42.016Z,19.70
2023-08-18T02:52:46.603Z,19.70
2023-08-18T02:57:51.882Z,19.30
2023-08-18T03:00:24.462Z,19.20
2023-08-18T03:02:56.799Z,19.20
2023-08-18T03:05:29.090Z,19.10
2023-08-18T03:08:01.003Z,19.10
2023-08-18T03:10:34.183Z,19.10
2023-08-18T03:15:42.371Z,19.10
2023-08-18T03:18:14.355Z,19.00
2023-08-18T03:20:49.666Z,19.00
2023-08-18T03:23:21.871Z,19.00
2023-08-18T03:26:06.000Z,18.90
2023-08-18T03:31:14.428Z,19.10
2023-08-18T03:33:46.457Z,19.20
2023-08-18T03:36:24.138Z,19.10
2023-08-18T03:38:56.453Z,19.10
2023-08-18T03:41:30.462Z,19.10
2023-08-18T03:44:03.800Z,19.30
2023-08-18T03:46:37.497Z,19.40
2023-08-18T03:51:43.891Z,19.20
2023-08-18T03:54:15.921Z,19.10
2023-08-18T03:56:48.556Z,19.20
2023-08-18T03:59:21.829Z,19.20
2023-08-18T04:01:54.424Z,19.20
2023-08-18T04:04:26.427Z,19.20
2023-08-18T04:06:59.008Z,19.20
2023-08-18T04:09:30.962Z,19.30
2023-08-18T04:12:03.977Z,19.30
2023-08-18T04:17:08.948Z,19.40
2023-08-18T04:19:41.140Z,19.40
2023-08-18T04:22:13.736Z,19.50
2023-08-18T04:27:19.352Z,19.70
2023-08-18T04:29:51.412Z,19.70
2023-08-18T04:32:24.627Z,19.60
2023-08-18T04:34:57.090Z,19.60
2023-08-18T04:37:29.934Z,19.60
2023-08-18T04:40:02.107Z,19.50
2023-08-18T04:45:07.698Z,19.30
2023-08-18T04:47:41.543Z,19.40
2023-08-18T04:50:13.446Z,19.40
2023-08-18T04:52:46.132Z,19.40
2023-08-18T04:55:18.114Z,19.40
2023-08-18T04:57:50.702Z,19.30
2023-08-18T05:00:24.381Z,19.30
2023-08-18T05:02:57.111Z,19.40
2023-08-18T05:08:02.193Z,19.50
2023-08-18T05:13:06.952Z,19.60
2023-08-18T05:15:38.853Z,19.60
2023-08-18T05:20:44.245Z,19.40
2023-08-18T05:23:18.822Z,19.40
2023-08-18T05:25:55.115Z,19.50
2023-08-18T05:28:31.125Z,19.50
2023-08-18T05:31:03.173Z,19.60
2023-08-18T05:36:09.073Z,19.70
2023-08-18T05:38:41.704Z,19.80
2023-08-18T05:41:15.316Z,19.90
2023-08-18T05:46:20.468Z,20.20
2023-08-18T05:48:53.483Z,20.30
2023-08-18T05:51:25.573Z,20.30
2023-08-18T05:53:58.233Z,20.30
2023-08-18T05:59:05.870Z,20.20
2023-08-18T06:01:37.870Z,20.50
2023-08-18T06:04:10.584Z,20.60
2023-08-18T06:06:42.592Z,20.60
2023-08-18T06:11:48.010Z,20.90
2023-08-18T06:16:53.124Z,21.00
2023-08-18T06:19:25.686Z,21.00
2023-08-18T06:24:30.618Z,21.10
2023-08-18T06:27:02.576Z,21.10
2023-08-18T06:29:35.235Z,21.00
2023-08-18T06:32:07.236Z,21.10
2023-08-18T06:34:39.904Z,21.20
2023-08-18T06:37:11.908Z,21.30
2023-08-18T06:39:45.411Z,21.50
2023-08-18T06:42:19.337Z,21.70
2023-08-18T06:44:51.920Z,21.80
2023-08-18T06:47:24.565Z,21.90
2023-08-18T06:49:57.307Z,21.90
2023-08-18T06:52:29.873Z,22.10
2023-08-18T06:55:05.884Z,22.10
2023-08-18T06:57:38.549Z,22.10
2023-08-18T07:00:11.645Z,22.20
2023-08-18T07:05:18.232Z,22.10
2023-08-18T07:07:50.581Z,22.20
2023-08-18T07:10:23.470Z,22.30
2023-08-18T07:12:55.414Z,22.30
2023-08-18T07:15:27.983Z,22.30
2023-08-18T07:18:00.028Z,22.30
2023-08-18T07:20:33.350Z,22.30
2023-08-18T07:23:05.395Z,22.40
2023-08-18T07:25:41.035Z,22.40
2023-08-18T07:30:46.053Z,22.60
2023-08-18T07:35:51.006Z,22.80
2023-08-18T07:38:22.968Z,22.90
2023-08-18T07:40:55.585Z,23.20
2023-08-18T07:43:27.571Z,23.80
2023-08-18T07:46:00.307Z,24.80
2023-08-18T07:51:05.392Z,26.80
2023-08-18T07:53:37.505Z,27.40
2023-08-18T07:56:10.120Z,27.70
2023-08-18T07:58:42.068Z,27.70
2023-08-18T08:01:15.416Z,28.10
2023-08-18T08:03:47.549Z,28.10
2023-08-18T08:06:20.354Z,28.20
2023-08-18T08:08:52.272Z,28.20
2023-08-18T08:11:24.891Z,28.20
2023-08-18T08:13:56.863Z,28.50
2023-08-18T08:16:29.614Z,28.70
2023-08-18T08:19:01.790Z,28.50
2023-08-18T08:21:37.059Z,28.90
2023-08-18T08:24:09.639Z,29.80
2023-08-18T08:26:42.287Z,29.30
2023-08-18T08:29:14.489Z,29.20
2023-08-18T08:31:47.133Z,28.70
2023-08-18T08:34:23.160Z,29.10
2023-08-18T08:36:55.880Z,28.80
2023-08-18T08:39:27.835Z,28.90
2023-08-18T08:42:00.441Z,29.20
2023-08-18T08:44:32.442Z,29.50
2023-08-18T08:47:05.259Z,29.00
2023-08-18T08:49:40.576Z,29.10
2023-08-18T08:52:17.609Z,29.40
2023-08-18T08:55:00.161Z,29.10
2023-08-18T08:57:33.059Z,28.50
2023-08-18T09:00:06.701Z,28.50
2023-08-18T09:02:43.407Z,29.00
2023-08-18T09:05:15.684Z,28.90
2023-08-18T09:07:52.974Z,29.30
2023-08-18T09:10:28.149Z,29.10
2023-08-18T09:13:00.875Z,29.50
2023-08-18T09:15:33.401Z,29.50
2023-08-18T09:18:07.002Z,29.50
2023-08-18T09:20:46.647Z,30.60
2023-08-18T09:23:22.695Z,30.00
2023-08-18T09:25:58.974Z,30.20
2023-08-18T09:28:33.568Z,30.30
2023-08-18T09:31:05.518Z,29.60
2023-08-18T09:33:38.794Z,29.60
2023-08-18T09:36:13.756Z,29.80
2023-08-18T09:38:46.900Z,31.40
2023-08-18T09:41:18.893Z,30.30
2023-08-18T09:43:51.577Z,30.80
2023-08-18T09:46:27.309Z,30.50
2023-08-18T09:49:02.379Z,29.80
2023-08-18T09:51:35.145Z,29.80
2023-08-18T09:54:14.764Z,30.70
2023-08-18T09:56:52.231Z,30.30
2023-08-18T09:59:33.267Z,32.20
2023-08-18T10:02:06.129Z,32.40
2023-08-18T10:04:43.306Z,31.40
2023-08-18T10:07:18.248Z,31.30
2023-08-18T10:09:52.807Z,31.40
2023-08-18T10:12:26.356Z,31.40
2023-08-18T10:15:00.320Z,31.90
2023-08-18T10:22:38.379Z,32.60
2023-08-18T10:25:23.478Z,32.80
2023-08-18T10:27:55.517Z,32.90
2023-08-18T10:30:30.346Z,33.20
2023-08-18T10:33:13.440Z,32.70
2023-08-18T10:36:09.496Z,32.20
2023-08-18T10:38:41.585Z,32.10
2023-08-18T10:41:14.558Z,31.80
2023-08-18T10:43:52.775Z,31.50
2023-08-18T10:46:37.101Z,32.30
2023-08-18T10:49:09.912Z,32.20
2023-08-18T10:51:42.845Z,31.80
2023-08-18T10:56:48.445Z,32.20
2023-08-18T10:59:20.512Z,32.40
2023-08-18T11:01:53.784Z,32.60
2023-08-18T11:04:27.932Z,32.90
2023-08-18T11:07:03.549Z,33.40
2023-08-18T11:09:39.521Z,33.50
2023-08-18T11:12:12.221Z,33.50
2023-08-18T11:14:44.242Z,33.50
2023-08-18T11:17:17.175Z,33.90
2023-08-18T11:19:49.168Z,34.10
2023-08-18T11:22:22.440Z,34.00
2023-08-18T11:24:55.566Z,34.40
2023-08-18T11:27:28.864Z,34.30
2023-08-18T11:30:16.774Z,35.00
2023-08-18T11:32:50.790Z,34.60
2023-08-18T11:35:26.154Z,34.00
2023-08-18T11:38:04.623Z,34.40
2023-08-18T11:40:41.595Z,36.00
2023-08-18T11:43:14.963Z,34.20
2023-08-18T11:45:50.490Z,34.10
2023-08-18T11:48:25.506Z,36.20
2023-08-18T11:51:02.930Z,34.60
2023-08-18T11:53:40.821Z,36.60
2023-08-18T11:56:13.262Z,34.30
2023-08-18T11:58:46.247Z,34.70
2023-08-18T12:01:18.829Z,34.60
2023-08-18T12:03:58.269Z,34.60
2023-08-18T12:06:30.336Z,34.80
2023-08-18T12:09:07.072Z,34.50
2023-08-18T12:11:40.116Z,34.60
2023-08-18T12:14:12.813Z,34.60
2023-08-18T12:16:46.573Z,34.00
2023-08-18T12:19:22.300Z,34.00
2023-08-18T12:21:54.268Z,33.80
2023-08-18T12:24:27.125Z,33.60
2023-08-18T12:26:59.169Z,34.00
2023-08-18T12:29:33.759Z,34.10
2023-08-18T12:32:07.254Z,33.80
2023-08-18T12:34:39.252Z,33.70
2023-08-18T12:37:12.194Z,33.80
2023-08-18T12:39:45.102Z,33.70
2023-08-18T12:42:17.447Z,33.90
2023-08-18T12:44:50.676Z,34.00
2023-08-18T12:47:22.864Z,34.50
2023-08-18T12:49:56.499Z,34.50
2023-08-18T12:52:29.952Z,34.30
2023-08-18T12:55:05.233Z,33.90
2023-08-18T12:57:38.314Z,33.90
2023-08-18T13:00:12.612Z,34.50
2023-08-18T13:02:45.663Z,34.40
2023-08-18T13:05:17.796Z,34.40
2023-08-18T13:07:54.052Z,33.90
2023-08-18T13:13:14.340Z,34.20
2023-08-18T13:15:46.597Z,34.40
2023-08-18T13:18:19.635Z,34.40
2023-08-18T13:20:54.322Z,34.70
2023-08-18T13:23:27.517Z,34.50
2023-08-18T13:26:02.253Z,34.60
2023-08-18T13:28:39.541Z,34.60
2023-08-18T13:31:43.243Z,34.40
2023-08-18T13:34:19.445Z,34.30
2023-08-18T13:36:55.683Z,34.60
2023-08-18T13:39:28.107Z,35.10
2023-08-18T13:42:01.072Z,35.20
2023-08-18T13:44:33.051Z,35.40
2023-08-18T13:47:06.493Z,35.30
2023-08-18T13:49:38.948Z,35.30
2023-08-18T13:52:11.940Z,34.20
2023-08-18T13:54:44.020Z,34.70
2023-08-18T13:57:19.847Z,34.60
2023-08-18T13:59:53.932Z,34.40
2023-08-18T14:02:27.190Z,34.30
2023-08-18T14:05:01.429Z,34.20
2023-08-18T14:07:35.713Z,34.20
2023-08-18T14:12:47.052Z,34.10
2023-08-18T14:15:19.103Z,33.90
2023-08-18T14:17:52.105Z,33.90
2023-08-18T14:20:24.182Z,34.10
2023-08-18T14:22:57.468Z,34.10
2023-08-18T14:28:02.764Z,34.40
2023-08-18T14:30:35.855Z,34.80
2023-08-18T14:33:08.358Z,34.80
2023-08-18T14:35:41.113Z,34.90
2023-08-18T14:38:13.213Z,34.60
2023-08-18T14:40:46.908Z,34.10
2023-08-18T14:43:19.497Z,34.30
2023-08-18T14:45:57.965Z,34.40
2023-08-18T14:48:30.718Z,35.00
2023-08-18T14:51:06.226Z,35.00
2023-08-18T14:53:38.286Z,35.00
2023-08-18T14:56:11.287Z,34.90
2023-08-18T14:58:43.330Z,35.00
2023-08-18T15:01:16.352Z,34.90
2023-08-18T15:03:48.597Z,35.00
2023-08-18T15:06:21.578Z,35.10
2023-08-18T15:08:53.646Z,35.20
2023-08-18T15:11:26.651Z,34.80
2023-08-18T15:16:34.084Z,34.50
2023-08-18T15:19:11.277Z,34.90
2023-08-18T15:21:46.622Z,35.20
2023-08-18T15:24:21.428Z,34.90
2023-08-18T15:26:54.561Z,34.80
2023-08-18T15:29:27.115Z,34.90
2023-08-18T15:31:59.227Z,34.50
2023-08-18T15:40:27.364Z,34.30
2023-08-18T15:42:59.379Z,34.60
2023-08-18T15:45:32.429Z,34.60
2023-08-18T15:48:05.508Z,34.60
2023-08-18T15:50:38.953Z,34.70
2023-08-18T15:53:12.017Z,34.50
2023-08-18T15:55:47.553Z,34.40
2023-08-18T15:58:23.036Z,34.30
2023-08-18T16:00:57.925Z,34.20
2023-08-18T16:03:30.479Z,34.10
2023-08-18T16:06:08.268Z,34.00
2023-08-18T16:08:40.536Z,33.90
2023-08-18T16:11:14.524Z,33.90
2023-08-18T16:13:59.860Z,33.90
2023-08-18T16:16:43.809Z,33.90
2023-08-18T16:19:18.564Z,33.90
2023-08-18T16:21:58.689Z,33.90
2023-08-18T16:24:30.915Z,33.90
2023-08-18T16:27:03.875Z,33.90
2023-08-18T16:29:36.411Z,33.90
2023-08-18T16:32:09.494Z,33.70
2023-08-18T16:34:41.940Z,33.70
2023-08-18T16:37:13.998Z,33.70
2023-08-18T16:39:51.702Z,33.60
2023-08-18T16:42:23.788Z,33.60
2023-08-18T16:45:03.388Z,33.50
2023-08-18T16:50:27.886Z,33.50
2023-08-18T16:53:02.658Z,33.50
2023-08-18T16:55:35.684Z,33.40
2023-08-18T16:58:07.781Z,33.40
2023-08-18T17:00:43.952Z,33.40
2023-08-18T17:03:16.071Z,33.30
2023-08-18T17:05:50.770Z,33.20
2023-08-18T17:08:22.854Z,33.30
2023-08-18T17:10:56.562Z,33.30
2023-08-18T17:13:28.726Z,33.30
2023-08-18T17:18:34.684Z,33.10
2023-08-18T17:21:07.613Z,33.00
2023-08-18T17:23:39.582Z,32.90
2023-08-18T17:26:12.677Z,32.90
2023-08-18T17:28:44.630Z,32.80
2023-08-18T17:31:18.702Z,32.70
2023-08-18T17:33:50.693Z,32.70
2023-08-18T17:41:29.378Z,32.40
2023-08-18T17:44:01.377Z,32.20
2023-08-18T17:46:34.595Z,32.00
2023-08-18T17:49:07.095Z,31.80
2023-08-18T17:51:39.584Z,31.60
2023-08-18T17:54:11.614Z,31.60
2023-08-18T17:56:44.542Z,31.40
2023-08-18T17:59:16.512Z,31.40
2023-08-18T18:01:50.501Z,31.20
2023-08-18T18:04:22.507Z,31.00
2023-08-18T18:06:55.370Z,30.60
2023-08-18T18:09:28.138Z,30.60
2023-08-18T18:12:00.125Z,30.40
2023-08-18T18:17:05.863Z,30.00
2023-08-18T18:29:54.522Z,29.20
2023-08-18T18:32:26.696Z,29.00
2023-08-18T18:35:01.422Z,28.80
2023-08-18T18:37:35.765Z,28.60
2023-08-18T18:40:20.654Z,28.30
2023-08-18T18:42:52.854Z,28.20
2023-08-18T18:45:25.478Z,28.10
2023-08-18T18:47:57.461Z,28.00
2023-08-18T18:53:03.875Z,27.60
2023-08-18T18:55:36.671Z,27.60
2023-08-18T18:58:08.991Z,27.60
2023-08-18T19:05:50.337Z,27.30
2023-08-18T19:08:22.714Z,27.30
2023-08-18T19:10:59.446Z,27.20
2023-08-18T19:13:31.637Z,27.10
2023-08-18T19:18:40.751Z,26.90
2023-08-18T19:23:50.375Z,26.70
2023-08-18T19:28:56.377Z,26.70
2023-08-18T19:31:29.671Z,26.60
2023-08-18T19:36:35.006Z,26.40
2023-08-18T19:39:07.204Z,26.40
2023-08-18T19:41:39.937Z,26.30
2023-08-18T19:44:11.928Z,26.30
2023-08-18T19:46:44.546Z,26.20
2023-08-18T19:49:16.644Z,26.10
2023-08-18T19:51:50.837Z,25.90
2023-08-18T19:59:33.136Z,25.90
2023-08-18T20:05:40.930Z,25.70
2023-08-18T20:10:46.449Z,25.80
2023-08-18T20:13:19.196Z,25.80
2023-08-18T20:18:24.200Z,25.70
2023-08-18T20:20:56.355Z,25.70
2023-08-18T20:23:29.464Z,25.60
2023-08-18T20:26:05.998Z,25.60
2023-08-18T20:28:38.798Z,25.50
2023-08-18T20:33:44.369Z,25.40
2023-08-18T20:36:16.315Z,25.20
2023-08-18T20:38:48.947Z,25.20
2023-08-18T20:41:21.333Z,25.20
2023-08-18T20:43:53.634Z,25.20
2023-08-18T20:48:58.784Z,25.00
2023-08-18T20:51:30.696Z,24.80
2023-08-18T20:54:03.646Z,24.80
2023-08-18T20:56:36.496Z,24.70
2023-08-18T20:59:09.094Z,24.60
2023-08-18T21:01:41.134Z,24.50
2023-08-18T21:04:13.830Z,24.60
2023-08-18T21:09:19.931Z,24.60
2023-08-18T21:14:27.687Z,24.60
2023-08-18T21:16:59.630Z,24.50
2023-08-18T21:19:32.314Z,24.50
2023-08-18T21:22:04.338Z,24.40
2023-08-18T21:24:36.962Z,24.40
2023-08-18T21:29:42.499Z,24.50
2023-08-18T21:32:14.413Z,24.40
2023-08-18T21:42:25.285Z,24.30
2023-08-18T21:44:57.951Z,24.10
2023-08-18T21:47:29.936Z,24.10
2023-08-18T21:50:02.661Z,24.20
2023-08-18T21:52:35.197Z,24.10
2023-08-18T21:55:10.344Z,24.10
2023-08-18T22:00:15.930Z,24.10
2023-08-18T22:02:48.372Z,24.00
2023-08-18T22:05:21.850Z,24.00
2023-08-18T22:07:53.828Z,24.00
2023-08-18T22:15:32.957Z,23.80
2023-08-18T22:18:05.204Z,23.80
2023-08-18T22:20:37.891Z,23.80
2023-08-18T22:23:09.973Z,23.70
2023-08-18T22:25:42.567Z,23.80
2023-08-18T22:28:14.494Z,23.80
2023-08-18T22:30:47.107Z,23.80
2023-08-18T22:33:20.668Z,23.70
2023-08-18T22:35:58.155Z,23.60
2023-08-18T22:38:30.139Z,23.60
2023-08-18T22:41:04.614Z,23.50
2023-08-18T22:43:37.139Z,23.50
2023-08-18T22:46:10.038Z,23.50
2023-08-18T22:51:20.851Z,23.50
2023-08-18T22:53:54.051Z,23.70
2023-08-18T22:56:26.735Z,23.70
2023-08-18T22:58:58.817Z,23.70
2023-08-18T23:01:31.421Z,23.80
2023-08-18T23:04:03.632Z,23.80
2023-08-18T23:06:36.273Z,23.70
2023-08-18T23:09:09.191Z,23.80
2023-08-18T23:11:41.826Z,23.80
2023-08-18T23:14:14.554Z,23.70
2023-08-18T23:16:48.361Z,23.70
2023-08-18T23:21:53.580Z,23.80
2023-08-18T23:24:25.541Z,23.70
2023-08-18T23:26:59.169Z,23.70
2023-08-18T23:29:31.240Z,23.70
2023-08-18T23:32:04.148Z,23.60
2023-08-18T23:34:36.230Z,23.60
2023-08-18T23:37:09.727Z,23.50
2023-08-18T23:39:41.675Z,23.40
2023-08-18T23:42:14.333Z,23.20
2023-08-18T23:44:46.300Z,23.10
2023-08-18T23:54:56.926Z,22.50
2023-08-18T23:57:29.939Z,22.50
